Terminal Aerodrome Forecast
Issued by NWS Buffalo, NY

Home | Current Version | Previous Version | Text Only | Print | Product List | Glossary On
Versions: 1 2 3 4 5 6 7 8 9 10 11 12 13 14 15 16 17 18 19 20 21 22 23 24 25 26
000
FTUS41 KBUF 221532 AAC
TAFBUF
TAF AMD
KBUF 221532Z 2216/2312 24010KT 2SM BR OVC008
     FM221800 25008KT 3SM BR BKN008
     FM222100 26008KT 2SM BR OVC005
     FM230600 28005KT P6SM BKN015=

USA.gov is the U.S. government's official web portal to all federal, state and local government web resources and services.